createdAt,value
2022-08-10T00:00:57.413Z,16.50
2022-08-10T00:03:25.474Z,16.40
2022-08-10T00:05:56.389Z,16.40
2022-08-10T00:08:25.904Z,16.30
2022-08-10T00:10:54.123Z,16.30
2022-08-10T00:13:22.587Z,16.30
2022-08-10T00:15:53.684Z,16.30
2022-08-10T00:18:34.808Z,16.30
2022-08-10T00:21:06.030Z,16.30
2022-08-10T00:23:33.991Z,16.20
2022-08-10T00:26:02.022Z,16.20
2022-08-10T00:28:29.859Z,16.10
2022-08-10T00:30:57.820Z,16.10
2022-08-10T00:33:25.799Z,16.00
2022-08-10T00:35:53.684Z,16.10
2022-08-10T00:38:22.893Z,16.10
2022-08-10T00:40:51.005Z,16.10
2022-08-10T00:43:23.912Z,16.00
2022-08-10T00:45:58.835Z,16.00
2022-08-10T00:48:29.890Z,15.80
2022-08-10T00:50:59.108Z,15.70
2022-08-10T00:53:29.562Z,15.60
2022-08-10T00:56:41.639Z,15.60
2022-08-10T00:58:47.180Z,15.80
2022-08-10T01:02:09.338Z,15.60
2022-08-10T01:04:39.766Z,15.80
2022-08-10T01:07:06.461Z,15.60
2022-08-10T01:09:55.733Z,15.50
2022-08-10T01:12:40.393Z,15.80
2022-08-10T01:15:16.167Z,15.60
2022-08-10T01:17:53.361Z,15.50
2022-08-10T01:20:36.717Z,15.50
2022-08-10T01:23:49.259Z,15.60
2022-08-10T01:26:40.935Z,15.40
2022-08-10T01:29:43.042Z,15.50
2022-08-10T01:32:14.395Z,15.50
2022-08-10T01:34:49.638Z,15.50
2022-08-10T01:37:22.967Z,15.50
2022-08-10T01:39:56.319Z,15.50
2022-08-10T01:42:25.994Z,15.50
2022-08-10T01:44:58.615Z,15.40
2022-08-10T01:47:57.758Z,15.40
2022-08-10T01:50:30.708Z,15.40
2022-08-10T01:53:04.493Z,15.40
2022-08-10T01:55:32.960Z,15.30
2022-08-10T01:58:04.150Z,15.40
2022-08-10T02:00:36.046Z,15.40
2022-08-10T02:03:06.873Z,15.40
2022-08-10T02:05:35.938Z,15.40
2022-08-10T02:08:05.864Z,15.30
2022-08-10T02:10:36.048Z,15.30
2022-08-10T02:13:04.848Z,15.30
2022-08-10T02:15:36.079Z,15.30
2022-08-10T02:18:07.038Z,15.20
2022-08-10T02:20:38.730Z,15.20
2022-08-10T02:23:09.531Z,15.20
2022-08-10T02:25:41.002Z,15.20
2022-08-10T02:28:29.387Z,15.10
2022-08-10T02:31:03.722Z,15.10
2022-08-10T02:33:37.378Z,15.10
2022-08-10T02:36:08.559Z,15.10
2022-08-10T02:38:59.329Z,15.20
2022-08-10T02:45:02.456Z,15.20
2022-08-10T02:45:29.565Z,15.10
2022-08-10T02:47:25.727Z,15.10
2022-08-10T02:50:03.223Z,15.10
2022-08-10T02:52:38.459Z,15.10
2022-08-10T02:55:17.944Z,15.10
2022-08-10T02:58:17.898Z,15.10
2022-08-10T03:00:44.629Z,15.00
2022-08-10T03:03:20.688Z,15.10
2022-08-10T03:05:52.109Z,15.10
2022-08-10T03:08:23.425Z,15.00
2022-08-10T03:10:52.412Z,15.00
2022-08-10T03:13:21.513Z,15.00
2022-08-10T03:15:51.194Z,15.10
2022-08-10T03:18:22.568Z,15.30
2022-08-10T03:20:52.108Z,14.90
2022-08-10T03:23:21.741Z,14.90
2022-08-10T03:25:54.601Z,14.90
2022-08-10T03:28:24.513Z,14.80
2022-08-10T03:30:53.447Z,14.70
2022-08-10T03:33:25.096Z,14.80
2022-08-10T03:36:40.601Z,14.90
2022-08-10T03:38:41.426Z,14.90
2022-08-10T03:41:15.867Z,14.90
2022-08-10T03:43:47.589Z,14.80
2022-08-10T03:46:18.067Z,14.80
2022-08-10T03:48:49.923Z,14.80
2022-08-10T03:51:19.654Z,14.70
2022-08-10T03:54:04.280Z,14.80
2022-08-10T03:56:35.961Z,14.80
2022-08-10T03:59:04.197Z,14.80
2022-08-10T04:02:46.138Z,14.80
2022-08-10T04:04:24.639Z,14.90
2022-08-10T04:06:54.672Z,14.90
2022-08-10T04:09:23.343Z,14.90
2022-08-10T04:11:51.187Z,14.90
2022-08-10T04:14:38.050Z,14.90
2022-08-10T04:17:09.645Z,14.90
2022-08-10T04:19:48.722Z,14.90
2022-08-10T04:22:19.681Z,15.00
2022-08-10T04:24:50.644Z,15.10
2022-08-10T04:27:18.598Z,15.20
2022-08-10T04:29:47.445Z,15.30
2022-08-10T04:32:18.168Z,15.50
2022-08-10T04:34:49.242Z,15.60
2022-08-10T04:37:20.341Z,15.70
2022-08-10T04:39:49.046Z,15.80
2022-08-10T04:42:17.572Z,16.00
2022-08-10T04:44:45.501Z,16.30
2022-08-10T04:47:13.287Z,16.40
2022-08-10T04:49:56.423Z,16.40
2022-08-10T04:52:26.236Z,16.40
2022-08-10T04:54:54.060Z,16.40
2022-08-10T04:57:21.774Z,16.40
2022-08-10T04:59:50.012Z,16.40
2022-08-10T05:02:29.034Z,16.40
2022-08-10T05:04:59.725Z,16.40
2022-08-10T05:07:28.893Z,16.50
2022-08-10T05:10:02.032Z,16.50
2022-08-10T05:12:36.177Z,16.60
2022-08-10T05:15:06.081Z,16.60
2022-08-10T05:17:34.947Z,16.70
2022-08-10T05:20:06.786Z,16.80
2022-08-10T05:22:40.474Z,16.90
2022-08-10T05:25:10.554Z,17.00
2022-08-10T05:27:39.271Z,17.10
2022-08-10T05:30:08.599Z,17.30
2022-08-10T05:32:56.390Z,17.40
2022-08-10T05:35:25.775Z,17.60
2022-08-10T05:38:10.859Z,17.80
2022-08-10T05:40:46.728Z,17.90
2022-08-10T05:43:17.365Z,18.10
2022-08-10T05:46:17.103Z,18.30
2022-08-10T05:48:56.557Z,18.30
2022-08-10T05:51:22.944Z,18.50
2022-08-10T05:54:02.438Z,18.70
2022-08-10T05:56:55.063Z,18.60
2022-08-10T06:00:34.551Z,18.80
2022-08-10T06:02:33.609Z,18.80
2022-08-10T06:05:08.828Z,19.10
2022-08-10T06:07:41.106Z,19.30
2022-08-10T06:10:13.696Z,19.50
2022-08-10T06:12:55.353Z,19.60
2022-08-10T06:15:50.330Z,19.60
2022-08-10T06:18:15.191Z,20.00
2022-08-10T06:20:43.396Z,20.00
2022-08-10T06:23:12.321Z,20.10
2022-08-10T06:26:11.756Z,20.20
2022-08-10T06:28:33.407Z,20.40
2022-08-10T06:31:02.693Z,20.60
2022-08-10T06:33:32.902Z,20.60
2022-08-10T06:36:02.540Z,20.80
2022-08-10T06:38:33.507Z,20.70
2022-08-10T06:41:08.932Z,20.90
2022-08-10T06:43:37.637Z,21.10
2022-08-10T06:46:09.868Z,21.20
2022-08-10T06:48:42.431Z,21.40
2022-08-10T06:51:21.412Z,21.50
2022-08-10T06:53:55.166Z,21.50
2022-08-10T06:56:36.788Z,21.60
2022-08-10T06:59:21.151Z,21.70
2022-08-10T07:01:53.003Z,22.00
2022-08-10T07:04:31.974Z,22.10
2022-08-10T07:07:05.066Z,22.20
2022-08-10T07:09:35.863Z,22.30
2022-08-10T07:12:09.102Z,22.40
2022-08-10T07:14:40.659Z,22.50
2022-08-10T07:17:15.179Z,22.60
2022-08-10T07:23:27.060Z,23.20
2022-08-10T07:25:13.179Z,23.30
2022-08-10T07:27:59.525Z,23.50
2022-08-10T07:30:31.368Z,23.60
2022-08-10T07:33:03.183Z,23.50
2022-08-10T07:35:41.531Z,23.60
2022-08-10T07:38:16.866Z,23.90
2022-08-10T07:40:46.242Z,24.00
2022-08-10T07:43:17.759Z,23.90
2022-08-10T07:45:47.545Z,24.10
2022-08-10T07:48:17.829Z,24.10
2022-08-10T07:50:47.255Z,24.20
2022-08-10T07:53:22.449Z,24.20
2022-08-10T07:56:05.363Z,24.10
2022-08-10T07:58:47.262Z,24.20
2022-08-10T08:01:24.011Z,24.40
2022-08-10T08:04:05.249Z,24.60
2022-08-10T08:06:40.221Z,24.60
2022-08-10T08:09:08.161Z,24.80
2022-08-10T08:11:37.058Z,24.80
2022-08-10T08:14:07.868Z,24.90
2022-08-10T08:16:37.253Z,24.90
2022-08-10T08:24:09.314Z,25.20
2022-08-10T08:24:44.249Z,25.30
2022-08-10T08:27:15.124Z,25.20
2022-08-10T08:29:46.990Z,25.40
2022-08-10T08:32:17.598Z,25.40
2022-08-10T08:34:47.255Z,25.50
2022-08-10T08:38:30.350Z,25.70
2022-08-10T08:40:09.795Z,25.70
2022-08-10T08:43:09.365Z,25.50
2022-08-10T08:46:00.996Z,25.70
2022-08-10T08:48:57.660Z,25.60
2022-08-10T08:52:17.181Z,25.80
2022-08-10T08:54:38.906Z,25.60
2022-08-10T08:57:49.830Z,25.60
2022-08-10T09:00:13.330Z,25.50
2022-08-10T09:03:08.511Z,25.40
2022-08-10T09:05:58.861Z,25.30
2022-08-10T09:09:11.270Z,25.20
2022-08-10T09:11:55.337Z,25.20
2022-08-10T09:14:27.308Z,25.30
2022-08-10T09:17:04.380Z,25.40
2022-08-10T09:22:18.082Z,25.70
2022-08-10T09:24:55.005Z,25.80
2022-08-10T09:27:25.909Z,25.80
2022-08-10T09:29:57.099Z,25.70
2022-08-10T09:36:17.094Z,25.60
2022-08-10T09:36:21.419Z,25.70
2022-08-10T09:38:25.444Z,25.80
2022-08-10T09:41:05.060Z,25.80
2022-08-10T09:43:51.538Z,25.90
2022-08-10T09:46:33.372Z,25.90
2022-08-10T09:49:09.303Z,26.00
2022-08-10T09:52:07.086Z,26.20
2022-08-10T09:54:48.545Z,26.20
2022-08-10T09:57:54.790Z,26.20
2022-08-10T10:00:12.534Z,26.30
2022-08-10T10:02:52.273Z,26.40
2022-08-10T10:05:32.798Z,26.50
2022-08-10T10:08:10.473Z,26.70
2022-08-10T10:13:52.807Z,26.70
2022-08-10T10:16:33.212Z,26.70
2022-08-10T10:19:11.601Z,26.50
2022-08-10T10:21:56.137Z,26.40
2022-08-10T10:24:36.766Z,26.40
2022-08-10T10:27:16.112Z,26.60
2022-08-10T10:29:56.395Z,26.50
2022-08-10T10:32:37.398Z,26.80
2022-08-10T10:35:16.025Z,26.70
2022-08-10T10:38:01.247Z,26.80
2022-08-10T10:40:40.828Z,27.00
2022-08-10T10:43:16.384Z,27.00
2022-08-10T10:45:52.461Z,27.10
2022-08-10T10:48:28.946Z,27.20
2022-08-10T10:51:10.698Z,27.00
2022-08-10T10:53:45.164Z,27.00
2022-08-10T10:56:21.498Z,27.10
2022-08-10T10:59:33.341Z,27.20
2022-08-10T11:01:57.086Z,27.20
2022-08-10T11:04:31.432Z,27.30
2022-08-10T11:07:10.372Z,27.30
2022-08-10T11:10:05.480Z,27.30
2022-08-10T11:12:40.697Z,27.50
2022-08-10T11:15:22.954Z,27.60
2022-08-10T11:17:54.660Z,27.50
2022-08-10T11:20:27.541Z,27.40
2022-08-10T11:23:08.381Z,27.60
2022-08-10T11:25:41.581Z,27.40
2022-08-10T11:28:18.917Z,27.40
2022-08-10T11:30:59.133Z,27.30
2022-08-10T11:34:03.890Z,27.20
2022-08-10T11:36:31.639Z,27.40
2022-08-10T11:39:14.335Z,27.30
2022-08-10T11:42:12.333Z,27.40
2022-08-10T11:44:48.319Z,27.50
2022-08-10T11:47:20.006Z,27.50
2022-08-10T11:49:53.288Z,27.50
2022-08-10T11:52:29.950Z,27.50
2022-08-10T11:55:01.982Z,27.60
2022-08-10T11:57:53.453Z,27.60
2022-08-10T12:00:20.610Z,27.70
2022-08-10T12:02:53.376Z,27.80
2022-08-10T12:05:51.638Z,28.00
2022-08-10T12:10:04.842Z,27.90
2022-08-10T12:11:02.093Z,27.70
2022-08-10T12:13:37.068Z,27.70
2022-08-10T12:16:08.704Z,27.90
2022-08-10T12:18:46.141Z,27.60
2022-08-10T12:21:21.807Z,27.20
2022-08-10T12:24:03.076Z,27.00
2022-08-10T12:26:38.796Z,27.20
2022-08-10T12:29:12.979Z,27.40
2022-08-10T12:31:48.901Z,27.00
2022-08-10T12:34:25.438Z,27.20
2022-08-10T12:37:01.597Z,27.60
2022-08-10T12:39:32.397Z,27.70
2022-08-10T12:42:06.211Z,27.80
2022-08-10T12:44:42.087Z,27.60
2022-08-10T12:47:22.954Z,27.70
2022-08-10T12:50:23.884Z,27.80
2022-08-10T12:52:56.189Z,28.20
2022-08-10T12:55:27.020Z,27.80
2022-08-10T12:57:57.021Z,27.90
2022-08-10T13:00:33.642Z,28.00
2022-08-10T13:03:06.891Z,28.00
2022-08-10T13:06:02.221Z,28.00
2022-08-10T13:08:43.322Z,28.10
2022-08-10T13:12:34.177Z,28.10
2022-08-10T13:14:07.819Z,28.10
2022-08-10T13:16:36.648Z,28.20
2022-08-10T13:19:07.334Z,28.10
2022-08-10T13:21:38.872Z,28.10
2022-08-10T13:24:11.869Z,28.20
2022-08-10T13:27:10.902Z,28.50
2022-08-10T13:34:46.202Z,28.60
2022-08-10T13:37:17.146Z,28.40
2022-08-10T13:39:59.406Z,28.60
2022-08-10T13:42:32.399Z,28.70
2022-08-10T13:45:08.141Z,28.70
2022-08-10T13:47:48.415Z,28.70
2022-08-10T13:50:33.118Z,28.40
2022-08-10T13:53:11.514Z,28.50
2022-08-10T13:55:48.635Z,28.50
2022-08-10T13:58:25.690Z,28.40
2022-08-10T14:00:56.520Z,28.40
2022-08-10T14:03:25.487Z,28.40
2022-08-10T14:05:56.737Z,28.30
2022-08-10T14:08:27.455Z,28.60
2022-08-10T14:11:09.772Z,28.30
2022-08-10T14:13:44.836Z,28.10
2022-08-10T14:16:13.958Z,27.90
2022-08-10T14:18:45.024Z,28.10
2022-08-10T14:21:15.186Z,27.90
2022-08-10T14:23:53.122Z,28.10
2022-08-10T14:26:24.885Z,28.10
2022-08-10T14:28:57.016Z,27.80
2022-08-10T14:31:30.750Z,27.70
2022-08-10T14:34:01.661Z,27.60
2022-08-10T14:36:44.283Z,27.70
2022-08-10T14:39:21.918Z,27.40
2022-08-10T14:42:05.369Z,27.30
2022-08-10T14:44:45.866Z,27.10
2022-08-10T14:47:52.399Z,27.00
2022-08-10T14:50:05.220Z,26.90
2022-08-10T14:52:39.193Z,26.80
2022-08-10T15:03:58.861Z,26.40
2022-08-10T15:06:02.359Z,26.30
2022-08-10T15:08:36.635Z,26.00
2022-08-10T15:11:05.985Z,25.90
2022-08-10T15:13:35.477Z,25.70
2022-08-10T15:16:13.853Z,25.50
2022-08-10T15:18:58.728Z,25.40
2022-08-10T15:21:37.857Z,25.40
2022-08-10T15:24:37.788Z,25.30
2022-08-10T15:27:08.900Z,25.10
2022-08-10T15:29:57.296Z,25.10
2022-08-10T15:32:52.361Z,25.00
2022-08-10T15:35:41.644Z,24.90
2022-08-10T15:38:10.276Z,24.90
2022-08-10T15:40:50.914Z,24.90
2022-08-10T15:43:25.880Z,24.90
2022-08-10T15:46:04.313Z,24.80
2022-08-10T15:48:39.982Z,24.70
2022-08-10T15:51:17.824Z,24.60
2022-08-10T15:53:51.572Z,24.60
2022-08-10T15:56:28.683Z,24.60
2022-08-10T15:59:07.848Z,24.60
2022-08-10T16:02:04.454Z,24.50
2022-08-10T16:04:32.929Z,24.60
2022-08-10T16:07:06.257Z,24.40
2022-08-10T16:10:11.001Z,24.40
2022-08-10T16:12:35.358Z,24.40
2022-08-10T16:15:07.937Z,24.30
2022-08-10T16:17:55.034Z,24.20
2022-08-10T16:20:31.398Z,24.20
2022-08-10T16:23:02.052Z,24.10
2022-08-10T16:25:52.159Z,24.10
2022-08-10T16:28:23.692Z,24.00
2022-08-10T16:30:54.862Z,24.00
2022-08-10T16:33:52.571Z,23.90
2022-08-10T16:36:16.995Z,23.90
2022-08-10T16:38:47.679Z,23.90
2022-08-10T16:42:03.063Z,23.90
2022-08-10T16:44:07.942Z,23.80
2022-08-10T16:46:37.620Z,23.80
2022-08-10T16:49:06.370Z,23.70
2022-08-10T16:51:34.857Z,23.70
2022-08-10T16:54:04.318Z,23.60
2022-08-10T16:56:47.686Z,23.60
2022-08-10T16:59:24.860Z,23.60
2022-08-10T17:01:54.187Z,23.60
2022-08-10T17:04:24.387Z,23.60
2022-08-10T17:06:56.408Z,23.50
2022-08-10T17:09:27.798Z,23.50
2022-08-10T17:11:58.785Z,23.50
2022-08-10T17:14:30.048Z,23.50
2022-08-10T17:17:01.101Z,23.50
2022-08-10T17:19:32.831Z,23.40
2022-08-10T17:22:07.491Z,23.30
2022-08-10T17:24:39.892Z,23.30
2022-08-10T17:28:05.222Z,23.30
2022-08-10T17:30:04.908Z,23.20
2022-08-10T17:32:44.441Z,23.20
2022-08-10T17:35:18.574Z,23.00
2022-08-10T17:37:54.935Z,23.00
2022-08-10T17:40:24.973Z,22.90
2022-08-10T17:42:55.091Z,22.90
2022-08-10T17:45:47.981Z,22.80
2022-08-10T17:48:14.609Z,22.80
2022-08-10T17:50:43.626Z,22.70
2022-08-10T17:53:15.900Z,22.60
2022-08-10T17:55:45.570Z,22.60
2022-08-10T17:58:16.900Z,22.50
2022-08-10T18:00:49.439Z,22.50
2022-08-10T18:03:25.243Z,22.40
2022-08-10T18:05:55.890Z,22.30
2022-08-10T18:08:28.643Z,22.30
2022-08-10T18:11:00.512Z,22.20
2022-08-10T18:13:55.199Z,22.30
2022-08-10T18:16:25.301Z,22.30
2022-08-10T18:18:58.477Z,22.10
2022-08-10T18:21:32.003Z,22.10
2022-08-10T18:24:04.301Z,22.10
2022-08-10T18:26:37.418Z,22.10
2022-08-10T18:29:12.287Z,22.10
2022-08-10T18:31:44.534Z,22.10
2022-08-10T18:34:16.152Z,22.10
2022-08-10T18:36:45.915Z,22.00
2022-08-10T18:39:16.742Z,22.00
2022-08-10T18:42:04.697Z,22.00
2022-08-10T18:44:37.001Z,22.00
2022-08-10T18:47:13.590Z,21.90
2022-08-10T18:49:52.091Z,21.90
2022-08-10T18:52:23.352Z,21.70
2022-08-10T18:54:54.755Z,21.70
2022-08-10T18:57:35.776Z,21.60
2022-08-10T19:00:09.400Z,21.50
2022-08-10T19:02:55.029Z,21.50
2022-08-10T19:05:36.344Z,21.40
2022-08-10T19:08:49.430Z,21.40
2022-08-10T19:11:29.129Z,21.30
2022-08-10T19:14:07.303Z,21.20
2022-08-10T19:16:41.537Z,21.20
2022-08-10T19:19:35.696Z,21.10
2022-08-10T19:22:07.007Z,21.00
2022-08-10T19:24:51.914Z,20.90
2022-08-10T19:27:33.871Z,20.90
2022-08-10T19:30:11.079Z,20.80
2022-08-10T19:33:06.404Z,20.80
2022-08-10T19:36:03.566Z,20.70
2022-08-10T19:38:49.718Z,20.60
2022-08-10T19:41:32.130Z,20.60
2022-08-10T19:44:10.932Z,20.50
2022-08-10T19:46:43.282Z,20.40
2022-08-10T19:49:24.079Z,20.40
2022-08-10T19:51:58.109Z,20.40
2022-08-10T19:54:41.489Z,20.30
2022-08-10T19:57:16.491Z,20.40
2022-08-10T20:00:16.305Z,20.30
2022-08-10T20:02:52.460Z,20.20
2022-08-10T20:05:28.613Z,20.00
2022-08-10T20:08:04.416Z,19.80
2022-08-10T20:10:38.701Z,19.70
2022-08-10T20:13:13.816Z,19.50
2022-08-10T20:15:47.351Z,19.40
2022-08-10T20:18:24.553Z,19.50
2022-08-10T20:20:59.401Z,19.60
2022-08-10T20:23:33.906Z,19.50
2022-08-10T20:26:06.416Z,19.50
2022-08-10T20:28:41.233Z,19.50
2022-08-10T20:31:17.378Z,19.50
2022-08-10T20:33:58.644Z,19.50
2022-08-10T20:36:33.632Z,19.40
2022-08-10T20:39:14.253Z,19.30
2022-08-10T20:41:56.157Z,19.20
2022-08-10T20:44:36.481Z,19.20
2022-08-10T20:47:09.687Z,19.20
2022-08-10T20:49:42.051Z,19.20
2022-08-10T20:52:12.081Z,19.10
2022-08-10T20:54:46.620Z,19.10
2022-08-10T20:58:04.256Z,19.10
2022-08-10T21:00:18.520Z,19.10
2022-08-10T21:03:24.923Z,19.20
2022-08-10T21:06:06.606Z,19.20
2022-08-10T21:08:51.651Z,19.20
2022-08-10T21:11:35.002Z,19.20
2022-08-10T21:14:16.103Z,19.20
2022-08-10T21:17:06.313Z,19.20
2022-08-10T21:19:55.906Z,19.20
2022-08-10T21:22:29.215Z,19.20
2022-08-10T21:25:02.469Z,19.30
2022-08-10T21:28:08.756Z,19.20
2022-08-10T21:30:51.192Z,19.20
2022-08-10T21:33:34.446Z,19.20
2022-08-10T21:36:09.846Z,19.20
2022-08-10T21:38:47.439Z,19.20
2022-08-10T21:41:57.794Z,19.20
2022-08-10T21:45:07.616Z,19.20
2022-08-10T21:48:17.611Z,19.20
2022-08-10T21:51:10.442Z,19.20
2022-08-10T21:54:08.623Z,19.20
2022-08-10T21:57:01.595Z,19.20
2022-08-10T21:59:56.366Z,19.20
2022-08-10T22:02:49.747Z,19.20
2022-08-10T22:05:41.574Z,19.30
2022-08-10T22:08:31.271Z,19.30
2022-08-10T22:11:20.191Z,19.20
2022-08-10T22:14:09.933Z,19.30
2022-08-10T22:17:04.521Z,19.20
2022-08-10T22:19:56.903Z,19.20
2022-08-10T22:22:56.640Z,19.30
2022-08-10T22:25:55.559Z,19.30
2022-08-10T22:28:48.733Z,19.30
2022-08-10T22:31:47.463Z,19.30
2022-08-10T22:34:58.583Z,19.20
2022-08-10T22:37:57.970Z,19.20
2022-08-10T22:40:53.587Z,19.20
2022-08-10T22:43:43.751Z,19.20
2022-08-10T22:46:36.109Z,19.10
2022-08-10T22:49:03.197Z,19.20
2022-08-10T22:51:47.956Z,19.20
2022-08-10T22:54:39.576Z,19.10
2022-08-10T22:57:30.171Z,19.10
2022-08-10T22:59:58.826Z,19.00
2022-08-10T23:02:32.682Z,18.90
2022-08-10T23:05:08.840Z,18.80
2022-08-10T23:07:46.590Z,18.80
2022-08-10T23:10:17.241Z,18.70
2022-08-10T23:12:49.382Z,18.70
2022-08-10T23:15:41.327Z,18.70
2022-08-10T23:18:32.407Z,18.60
2022-08-10T23:21:02.352Z,18.50
2022-08-10T23:23:40.223Z,18.50
2022-08-10T23:26:11.605Z,18.50
2022-08-10T23:29:03.265Z,18.40
2022-08-10T23:32:00.584Z,18.50
2022-08-10T23:34:24.658Z,18.50
2022-08-10T23:36:53.933Z,18.20
2022-08-10T23:39:30.869Z,18.30
2022-08-10T23:42:07.829Z,18.20
2022-08-10T23:44:44.135Z,18.20
2022-08-10T23:47:15.339Z,18.20
2022-08-10T23:49:45.144Z,18.10
2022-08-10T23:52:15.724Z,18.00
2022-08-10T23:54:52.315Z,18.00
2022-08-10T23:57:22.466Z,18.00
2022-08-10T23:59:53.751Z,18.00
